createdAt,value
2023-01-30T00:00:32.506Z,100251.70
2023-01-30T00:04:55.282Z,100248.89
2023-01-30T00:08:58.456Z,100238.27
2023-01-30T00:13:01.206Z,100232.34
2023-01-30T00:17:12.425Z,100233.70
2023-01-30T00:21:15.769Z,100223.00
2023-01-30T00:25:18.679Z,100209.92
2023-01-30T00:29:21.490Z,100202.52
2023-01-30T00:33:56.548Z,100196.39
2023-01-30T00:37:59.751Z,100178.36
2023-01-30T00:42:36.895Z,100174.71
2023-01-30T00:51:24.634Z,100164.29
2023-01-30T00:55:28.770Z,100160.05
2023-01-30T00:59:31.521Z,100157.84
2023-01-30T01:03:39.540Z,100146.33
2023-01-30T01:07:42.319Z,100138.02
2023-01-30T01:11:45.082Z,100134.75
2023-01-30T01:15:53.818Z,100122.08
2023-01-30T01:19:56.561Z,100121.38
2023-01-30T01:24:00.793Z,100118.75
2023-01-30T01:28:03.954Z,100122.08
2023-01-30T01:32:12.267Z,100104.44
2023-01-30T01:36:29.314Z,100094.98
2023-01-30T01:45:52.043Z,100067.23
2023-01-30T01:49:55.258Z,100065.81
2023-01-30T01:54:36.312Z,100050.83
2023-01-30T01:58:45.996Z,100049.43
2023-01-30T02:03:17.838Z,100037.81
2023-01-30T02:07:22.263Z,100029.56
2023-01-30T02:11:56.036Z,100010.27
2023-01-30T02:16:01.772Z,99986.39
2023-01-30T02:20:28.565Z,99975.64
2023-01-30T02:25:08.903Z,99970.85
2023-01-30T02:29:40.136Z,99955.69
2023-01-30T02:34:29.652Z,99941.80
2023-01-30T02:38:46.001Z,99946.06
2023-01-30T02:42:55.971Z,99939.15
2023-01-30T02:47:32.347Z,99932.88
2023-01-30T02:51:39.698Z,99914.23
2023-01-30T02:55:43.857Z,99907.16
2023-01-30T03:12:08.819Z,99847.30
2023-01-30T03:16:21.720Z,99845.21
2023-01-30T03:20:24.877Z,99843.06
2023-01-30T03:24:28.049Z,99842.01
2023-01-30T03:28:55.922Z,99834.89
2023-01-30T03:32:58.949Z,99821.86
2023-01-30T03:37:02.651Z,99823.74
2023-01-30T03:41:06.239Z,99828.30
2023-01-30T03:45:11.218Z,99819.40
2023-01-30T03:49:14.266Z,99816.20
2023-01-30T03:53:25.873Z,99801.35
2023-01-30T03:57:28.759Z,99797.40
2023-01-30T04:02:00.910Z,99772.08
2023-01-30T04:06:03.938Z,99739.63
2023-01-30T04:10:07.403Z,99728.14
2023-01-30T04:14:10.385Z,99727.33
2023-01-30T04:18:13.366Z,99719.24
2023-01-30T04:22:23.637Z,99706.97
2023-01-30T04:26:26.774Z,99689.58
2023-01-30T04:30:32.163Z,99683.66
2023-01-30T04:34:35.151Z,99662.90
2023-01-30T04:38:38.895Z,99653.58
2023-01-30T04:42:41.853Z,99652.27
2023-01-30T04:46:44.873Z,99647.31
2023-01-30T04:50:50.226Z,99642.13
2023-01-30T04:54:53.189Z,99630.54
2023-01-30T04:58:56.231Z,99618.88
2023-01-30T05:02:59.488Z,99623.90
2023-01-30T05:07:02.463Z,99609.98
2023-01-30T05:11:05.676Z,99601.35
2023-01-30T05:15:09.520Z,99585.58
2023-01-30T05:19:39.673Z,99576.98
2023-01-30T05:23:42.925Z,99552.84
2023-01-30T05:27:46.235Z,99542.23
2023-01-30T05:31:49.289Z,99557.01
2023-01-30T05:35:59.651Z,99560.70
2023-01-30T05:40:02.597Z,99554.34
2023-01-30T05:44:14.088Z,99550.09
2023-01-30T05:48:17.131Z,99541.41
2023-01-30T05:53:17.922Z,99536.45
2023-01-30T05:57:20.916Z,99520.19
2023-01-30T06:01:28.884Z,99515.56
2023-01-30T06:05:31.866Z,99511.55
2023-01-30T06:09:53.594Z,99512.64
2023-01-30T06:14:28.366Z,99505.34
2023-01-30T06:18:31.402Z,99482.92
2023-01-30T06:22:34.380Z,99485.45
2023-01-30T06:27:04.186Z,99474.63
2023-01-30T06:31:08.355Z,99471.15
2023-01-30T06:35:11.435Z,99471.29
2023-01-30T06:39:14.412Z,99469.13
2023-01-30T06:43:17.584Z,99466.73
2023-01-30T06:47:21.643Z,99465.09
2023-01-30T06:51:25.188Z,99462.82
2023-01-30T06:55:28.697Z,99456.88
2023-01-30T06:59:31.827Z,99451.77
2023-01-30T07:03:34.980Z,99453.60
2023-01-30T07:08:02.846Z,99446.57
2023-01-30T07:12:06.047Z,99427.00
2023-01-30T07:16:09.157Z,99432.35
2023-01-30T07:20:12.362Z,99428.90
2023-01-30T07:24:15.521Z,99419.82
2023-01-30T07:28:18.664Z,99419.72
2023-01-30T07:32:21.751Z,99424.91
2023-01-30T07:36:24.692Z,99409.83
2023-01-30T07:40:28.049Z,99408.55
2023-01-30T07:44:56.745Z,99412.04
2023-01-30T07:48:59.955Z,99406.05
2023-01-30T07:53:07.201Z,99399.13
2023-01-30T07:57:10.206Z,99392.71
2023-01-30T08:01:14.336Z,99386.87
2023-01-30T08:05:17.418Z,99387.56
2023-01-30T08:09:20.520Z,99375.05
2023-01-30T08:13:54.677Z,99366.27
2023-01-30T08:18:25.737Z,99367.54
2023-01-30T08:22:29.273Z,99364.54
2023-01-30T08:26:32.411Z,99371.43
2023-01-30T08:31:09.126Z,99362.83
2023-01-30T08:35:12.259Z,99358.89
2023-01-30T08:39:16.017Z,99351.90
2023-01-30T08:43:19.316Z,99352.45
2023-01-30T08:47:22.297Z,99335.70
2023-01-30T08:51:34.184Z,99324.42
2023-01-30T08:56:02.600Z,99332.98
2023-01-30T09:00:06.540Z,99336.23
2023-01-30T09:04:09.638Z,99322.98
2023-01-30T09:08:36.715Z,99322.92
2023-01-30T09:12:39.760Z,99318.56
2023-01-30T09:16:42.747Z,99316.73
2023-01-30T09:20:45.781Z,99311.42
2023-01-30T09:24:48.931Z,99315.33
2023-01-30T09:28:54.156Z,99301.64
2023-01-30T09:32:57.112Z,99307.84
2023-01-30T09:37:04.372Z,99304.50
2023-01-30T09:41:26.481Z,99290.02
2023-01-30T09:45:49.566Z,99289.86
2023-01-30T09:49:58.491Z,99288.90
2023-01-30T09:54:36.557Z,99260.08
2023-01-30T09:59:31.599Z,99262.35
2023-01-30T10:03:40.219Z,99270.05
2023-01-30T10:08:01.670Z,99263.37
2023-01-30T10:12:16.995Z,99253.93
2023-01-30T10:16:26.174Z,99247.73
2023-01-30T10:20:48.434Z,99250.88
2023-01-30T10:25:39.712Z,99223.86
2023-01-30T10:29:48.756Z,99215.88
2023-01-30T10:33:51.777Z,99197.96
2023-01-30T10:38:14.117Z,99209.06
2023-01-30T10:42:23.894Z,99211.77
2023-01-30T10:46:43.660Z,99179.44
2023-01-30T10:51:03.192Z,99200.37
2023-01-30T10:55:12.139Z,99205.09
2023-01-30T10:59:46.244Z,99180.27
2023-01-30T11:04:37.402Z,99162.36
2023-01-30T11:09:05.149Z,99176.98
2023-01-30T11:13:18.070Z,99166.95
2023-01-30T11:18:41.400Z,99160.02
2023-01-30T11:23:38.315Z,99157.45
2023-01-30T13:58:35.389Z,99130.16
2023-01-30T14:03:03.577Z,99127.55
2023-01-30T14:07:12.786Z,99110.78
2023-01-30T14:11:36.218Z,99121.73
2023-01-30T14:16:05.674Z,99118.47
2023-01-30T14:20:21.049Z,99124.50
2023-01-30T14:25:14.306Z,99119.02
2023-01-30T14:29:42.080Z,99116.73
2023-01-30T14:33:50.555Z,99118.50
2023-01-30T14:43:53.999Z,99127.60
2023-01-30T14:48:22.435Z,99140.98
2023-01-30T14:52:41.694Z,99151.16
2023-01-30T14:57:18.376Z,99150.33
2023-01-30T15:01:21.693Z,99139.20
2023-01-30T15:05:38.822Z,99132.36
2023-01-30T15:09:53.579Z,99138.73
2023-01-30T15:14:23.090Z,99154.87
2023-01-30T15:18:47.972Z,99150.86
2023-01-30T15:23:26.779Z,99151.01
2023-01-30T15:27:58.966Z,99151.52
2023-01-30T15:32:14.956Z,99152.85
2023-01-30T15:36:19.119Z,99155.80
2023-01-30T15:40:24.388Z,99159.71
2023-01-30T15:44:42.683Z,99160.15
2023-01-30T15:48:55.033Z,99165.48
2023-01-30T15:52:59.083Z,99164.62
2023-01-30T15:57:02.300Z,99168.16
2023-01-30T16:01:06.956Z,99166.34
2023-01-30T16:05:25.226Z,99146.42
2023-01-30T16:09:28.618Z,99144.55
2023-01-30T16:13:33.474Z,99149.48
2023-01-30T16:17:36.639Z,99158.54
2023-01-30T16:21:47.689Z,99161.55
2023-01-30T16:25:53.188Z,99162.68
2023-01-30T16:30:30.808Z,99161.96
2023-01-30T16:34:38.774Z,99168.05
2023-01-30T16:38:57.552Z,99177.69
2023-01-30T16:43:29.432Z,99167.04
2023-01-30T16:47:34.687Z,99167.92
2023-01-30T16:51:38.391Z,99165.89
2023-01-30T16:56:49.394Z,99165.89
2023-01-30T17:00:52.720Z,99165.24
2023-01-30T17:05:21.700Z,99171.02
2023-01-30T17:09:46.473Z,99186.41
2023-01-30T17:14:14.967Z,99188.08
2023-01-30T17:18:18.467Z,99189.64
2023-01-30T17:22:24.631Z,99195.73
2023-01-30T17:26:28.704Z,99198.55
2023-01-30T17:30:31.888Z,99204.80
2023-01-30T17:34:35.066Z,99206.02
2023-01-30T17:38:38.238Z,99212.38
2023-01-30T17:42:41.685Z,99223.15
2023-01-30T17:46:51.089Z,99246.80
2023-01-30T17:50:54.210Z,99245.48
2023-01-30T17:55:49.521Z,99265.90
2023-01-30T17:59:52.685Z,99275.84
2023-01-30T18:03:55.683Z,99298.42
2023-01-30T18:07:58.810Z,99297.61
2023-01-30T18:12:04.544Z,99303.27
2023-01-30T18:16:15.070Z,99307.13
2023-01-30T18:20:20.692Z,99311.49
2023-01-30T18:24:24.405Z,99308.64
2023-01-30T18:34:21.942Z,99317.01
2023-01-30T18:38:28.129Z,99315.64
2023-01-30T18:42:31.220Z,99318.25
2023-01-30T18:46:34.722Z,99324.91
2023-01-30T18:50:37.850Z,99328.68
2023-01-30T18:54:40.885Z,99329.56
2023-01-30T18:58:49.702Z,99334.98
2023-01-30T19:02:53.740Z,99337.26
2023-01-30T19:07:11.208Z,99341.23
2023-01-30T19:11:36.075Z,99333.40
2023-01-30T19:15:39.199Z,99345.36
2023-01-30T19:19:50.354Z,99364.52
2023-01-30T19:23:54.555Z,99361.64
2023-01-30T19:28:03.171Z,99384.56
2023-01-30T19:32:06.571Z,99373.30
2023-01-30T19:36:18.675Z,99374.77
2023-01-30T19:40:22.055Z,99373.17
2023-01-30T19:44:25.772Z,99384.96
2023-01-30T19:48:28.791Z,99397.91
2023-01-30T19:52:32.424Z,99399.02
2023-01-30T19:56:51.994Z,99409.17
2023-01-30T20:00:56.027Z,99416.05
2023-01-30T20:05:28.418Z,99418.98
2023-01-30T20:09:31.472Z,99418.17
2023-01-30T20:13:36.965Z,99423.93
2023-01-30T20:17:40.033Z,99415.92
2023-01-30T20:21:44.343Z,99424.67
2023-01-30T20:25:48.644Z,99425.77
2023-01-30T20:29:55.951Z,99427.31
2023-01-30T20:34:04.646Z,99455.61
2023-01-30T20:38:07.915Z,99455.21
2023-01-30T20:42:18.815Z,99465.92
2023-01-30T20:46:24.560Z,99461.81
2023-01-30T20:50:27.709Z,99460.79
2023-01-30T20:54:30.767Z,99470.05
2023-01-30T20:58:34.076Z,99458.61
2023-01-30T21:02:37.139Z,99471.88
2023-01-30T21:06:45.858Z,99488.48
2023-01-30T21:10:49.881Z,99499.67
2023-01-30T21:15:02.738Z,99498.66
2023-01-30T21:19:08.466Z,99518.52
2023-01-30T21:23:28.897Z,99534.67
2023-01-30T21:27:31.982Z,99536.94
2023-01-30T21:32:31.483Z,99539.68
2023-01-30T21:36:34.495Z,99541.84
2023-01-30T21:41:24.621Z,99558.22
2023-01-30T21:45:27.725Z,99562.75
2023-01-30T21:50:34.081Z,99565.67
2023-01-30T21:54:37.759Z,99565.30
2023-01-30T21:58:40.816Z,99576.55
2023-01-30T22:02:43.866Z,99584.22
2023-01-30T22:07:10.182Z,99588.50
2023-01-30T22:11:20.609Z,99606.73
2023-01-30T22:15:23.689Z,99617.56
2023-01-30T22:20:19.848Z,99623.16
2023-01-30T22:24:22.999Z,99626.19
2023-01-30T22:28:58.185Z,99640.48
2023-01-30T22:33:01.385Z,99635.80
2023-01-30T22:37:04.420Z,99633.52
2023-01-30T22:41:36.352Z,99651.46
2023-01-30T22:45:39.461Z,99662.42
2023-01-30T22:49:42.759Z,99668.83
2023-01-30T22:53:51.368Z,99663.59
2023-01-30T22:57:54.397Z,99667.09
2023-01-30T23:01:57.536Z,99667.73
2023-01-30T23:12:09.125Z,99673.96
2023-01-30T23:21:57.151Z,99682.70
2023-01-30T23:26:02.125Z,99680.36
2023-01-30T23:35:47.632Z,99695.01
2023-01-30T23:39:50.712Z,99691.71
2023-01-30T23:43:54.545Z,99701.11
2023-01-30T23:53:45.050Z,99709.27
2023-01-30T23:58:49.243Z,99704.31
